Time;durP1;ratioP1;P1;durP2;ratioP2;P2;SDS_P1;SDS_P2;PMS_P1;PMS_P2;Temp;Humidity;BMP_temperature;BMP_pressure;BME280_temperature;BME280_humidity;BME280_pressure;Samples;Min_cycle;Max_cycle;Signal;HPM_P1;HPM_P2
2021/07/02 00:01:47;;;;;;;17.27;12.37;;;;;;;;;;5076266;28;20758;-71
2021/07/02 00:04:14;;;;;;;13.67;11.17;;;;;;;;;;5076193;28;20472;-71
2021/07/02 00:06:44;;;;;;;20.23;13.73;;;;;;;;;;5075966;28;20484;-71
2021/07/02 00:09:11;;;;;;;19.43;13.70;;;;;;;;;;5075851;28;20497;-72
2021/07/02 00:11:39;;;;;;;20.77;13.50;;;;;;;;;;5076721;28;20857;-72
2021/07/02 00:14:08;;;;;;;22.97;15.17;;;;;;;;;;5076116;28;20472;-72
2021/07/02 00:16:37;;;;;;;18.53;14.03;;;;;;;;;;5076524;28;20452;-71
2021/07/02 00:19:05;;;;;;;24.10;14.30;;;;;;;;;;5076541;28;20465;-72
2021/07/02 00:21:32;;;;;;;22.13;15.27;;;;;;;;;;5076361;28;20491;-71
2021/07/02 00:24:00;;;;;;;24.20;12.93;;;;;;;;;;5076688;28;20514;-71
2021/07/02 00:26:28;;;;;;;18.57;13.50;;;;;;;;;;5076087;28;20460;-71
2021/07/02 00:28:56;;;;;;;23.63;14.60;;;;;;;;;;5076339;28;20489;-71
2021/07/02 00:31:25;;;;;;;23.00;13.77;;;;;;;;;;5076266;28;20521;-71
2021/07/02 00:33:53;;;;;;;24.03;16.10;;;;;;;;;;5076359;28;20452;-71
2021/07/02 00:36:21;;;;;;;21.70;14.53;;;;;;;;;;5076579;28;20464;-72
2021/07/02 00:38:48;;;;;;;22.20;14.40;;;;;;;;;;5076120;28;20452;-71
2021/07/02 00:41:17;;;;;;;21.67;15.57;;;;;;;;;;5076637;28;20452;-71
2021/07/02 00:43:57;;;;;;;28.13;17.50;;;;;;;;;;5076426;28;20476;-71
2021/07/02 00:46:27;;;;;;;24.40;15.83;;;;;;;;;;5076048;28;20460;-71
2021/07/02 00:48:55;;;;;;;23.63;15.57;;;;;;;;;;5079624;28;20621;-71
2021/07/02 00:51:23;;;;;;;29.03;17.73;;;;;;;;;;5080261;28;20505;-71
2021/07/02 00:53:52;;;;;;;26.80;16.67;;;;;;;;;;5080080;28;20500;-71
2021/07/02 00:56:21;;;;;;;26.47;17.20;;;;;;;;;;5080084;28;20479;-71
2021/07/02 00:58:49;;;;;;;27.73;17.57;;;;;;;;;;5080235;28;20860;-71
2021/07/02 01:01:17;;;;;;;27.60;16.87;;;;;;;;;;5079939;28;20452;-71
2021/07/02 01:03:46;;;;;;;23.67;16.07;;;;;;;;;;5080348;28;20452;-71
2021/07/02 01:06:16;;;;;;;26.00;16.50;;;;;;;;;;5079856;28;20459;-71
2021/07/02 01:08:44;;;;;;;25.37;17.00;;;;;;;;;;5080007;28;20514;-71
2021/07/02 01:11:12;;;;;;;27.47;16.50;;;;;;;;;;5079877;28;20729;-71
2021/07/02 01:13:40;;;;;;;24.00;18.00;;;;;;;;;;5080028;28;20479;-71
2021/07/02 01:16:08;;;;;;;29.40;19.53;;;;;;;;;;5079864;28;20853;-71
2021/07/02 01:18:36;;;;;;;29.17;19.00;;;;;;;;;;5079562;28;20533;-71
2021/07/02 01:21:05;;;;;;;27.33;19.03;;;;;;;;;;5079723;28;20459;-71
2021/07/02 01:23:33;;;;;;;31.23;17.67;;;;;;;;;;5079464;28;20930;-70
2021/07/02 01:26:01;;;;;;;30.17;19.10;;;;;;;;;;5079645;28;20468;-71
2021/07/02 01:28:29;;;;;;;26.80;18.50;;;;;;;;;;5079382;28;20528;-71
2021/07/02 01:30:57;;;;;;;27.43;18.73;;;;;;;;;;5079238;28;20452;-71
2021/07/02 01:33:24;;;;;;;28.00;18.60;;;;;;;;;;5079804;28;20475;-71
2021/07/02 01:35:52;;;;;;;30.53;20.60;;;;;;;;;;5079113;28;20514;-71
2021/07/02 01:38:21;;;;;;;27.20;20.23;;;;;;;;;;5079912;28;20452;-71
2021/07/02 01:40:51;;;;;;;29.33;19.00;;;;;;;;;;5079746;28;20448;-71
2021/07/02 01:43:19;;;;;;;29.67;18.47;;;;;;;;;;5079294;28;20918;-71
2021/07/02 01:45:47;;;;;;;23.90;17.23;;;;;;;;;;5079600;28;20445;-71
2021/07/02 01:48:15;;;;;;;31.70;19.47;;;;;;;;;;5079540;28;20495;-71
2021/07/02 01:50:43;;;;;;;33.73;19.07;;;;;;;;;;5078580;28;20475;-71
2021/07/02 01:53:11;;;;;;;33.93;19.70;;;;;;;;;;5079423;28;20777;-71
2021/07/02 01:55:40;;;;;;;33.10;21.20;;;;;;;;;;5079182;28;20856;-71
2021/07/02 01:58:08;;;;;;;31.50;20.90;;;;;;;;;;5078631;28;20548;-71
2021/07/02 02:00:36;;;;;;;37.73;22.83;;;;;;;;;;5079010;28;20518;-71
2021/07/02 02:03:04;;;;;;;33.33;21.67;;;;;;;;;;5078993;28;20890;-71
2021/07/02 02:05:31;;;;;;;36.37;21.97;;;;;;;;;;5078871;28;20868;-71
2021/07/02 02:07:59;;;;;;;34.60;22.73;;;;;;;;;;5079018;28;20456;-71
2021/07/02 02:10:27;;;;;;;37.83;23.57;;;;;;;;;;5078894;28;20452;-71
2021/07/02 02:12:56;;;;;;;35.50;22.47;;;;;;;;;;5078763;28;20510;-73
2021/07/02 02:15:24;;;;;;;31.77;20.90;;;;;;;;;;5078612;28;20708;-71
2021/07/02 02:17:52;;;;;;;34.53;22.10;;;;;;;;;;5078796;28;20453;-72
2021/07/02 02:20:20;;;;;;;37.13;22.40;;;;;;;;;;5078834;28;20441;-72
2021/07/02 02:22:48;;;;;;;33.50;20.10;;;;;;;;;;5078617;28;20455;-71
2021/07/02 02:25:16;;;;;;;32.90;21.80;;;;;;;;;;5078262;28;20517;-71
2021/07/02 02:27:46;;;;;;;27.40;20.40;;;;;;;;;;5078748;28;20465;-71
2021/07/02 02:30:16;;;;;;;32.37;20.00;;;;;;;;;;5077641;28;20475;-71
2021/07/02 02:32:43;;;;;;;32.77;18.80;;;;;;;;;;5078126;28;20476;-71
2021/07/02 02:35:12;;;;;;;32.53;20.90;;;;;;;;;;5078616;28;20448;-71
2021/07/02 02:37:39;;;;;;;30.60;18.03;;;;;;;;;;5078154;28;20464;-71
2021/07/02 02:40:08;;;;;;;26.03;17.17;;;;;;;;;;5077837;28;20448;-71
2021/07/02 02:42:36;;;;;;;25.50;19.00;;;;;;;;;;5078288;28;20914;-71
2021/07/02 02:45:04;;;;;;;22.57;18.40;;;;;;;;;;5077777;28;21089;-71
2021/07/02 02:47:34;;;;;;;31.23;17.93;;;;;;;;;;5077859;28;20448;-71
2021/07/02 02:50:02;;;;;;;30.37;19.37;;;;;;;;;;5078018;28;20484;-71
2021/07/02 02:52:30;;;;;;;23.10;18.30;;;;;;;;;;5077803;28;20452;-71
2021/07/02 02:54:58;;;;;;;24.13;16.63;;;;;;;;;;5077751;28;20852;-71
2021/07/02 02:57:25;;;;;;;27.03;18.33;;;;;;;;;;5077845;28;20475;-71
2021/07/02 02:59:53;;;;;;;28.00;17.70;;;;;;;;;;5094067;28;20455;-71
2021/07/02 03:02:21;;;;;;;28.60;19.40;;;;;;;;;;5097841;28;20758;-71
2021/07/02 03:04:50;;;;;;;28.57;18.53;;;;;;;;;;5097868;28;20895;-71
2021/07/02 03:07:18;;;;;;;26.20;17.97;;;;;;;;;;5097493;28;20513;-71
2021/07/02 03:09:45;;;;;;;25.57;18.13;;;;;;;;;;5096453;28;20552;-71
2021/07/02 03:12:13;;;;;;;24.30;17.43;;;;;;;;;;5096766;28;20521;-71
2021/07/02 03:14:41;;;;;;;31.23;18.47;;;;;;;;;;5097726;28;20920;-70
2021/07/02 03:17:09;;;;;;;29.90;17.40;;;;;;;;;;5097817;28;20790;-71
2021/07/02 03:19:37;;;;;;;25.73;17.70;;;;;;;;;;5097111;28;20462;-71
2021/07/02 03:22:06;;;;;;;25.90;19.83;;;;;;;;;;5097340;28;20459;-71
2021/07/02 03:24:34;;;;;;;36.70;18.20;;;;;;;;;;5097316;28;20864;-71
2021/07/02 03:27:02;;;;;;;25.00;16.97;;;;;;;;;;5096859;28;20454;-71
2021/07/02 03:29:30;;;;;;;32.30;20.30;;;;;;;;;;5097162;28;20526;-71
2021/07/02 03:31:58;;;;;;;27.63;18.00;;;;;;;;;;5096378;28;20724;-70
2021/07/02 03:34:25;;;;;;;23.83;16.37;;;;;;;;;;5096600;28;20459;-71
2021/07/02 03:36:53;;;;;;;20.73;15.77;;;;;;;;;;5097147;28;20791;-71
2021/07/02 03:39:23;;;;;;;22.83;17.20;;;;;;;;;;5096835;28;20451;-71
2021/07/02 03:41:51;;;;;;;24.00;17.00;;;;;;;;;;5096711;28;20485;-71
2021/07/02 03:44:19;;;;;;;22.43;15.53;;;;;;;;;;5096555;28;20790;-71
2021/07/02 03:46:47;;;;;;;24.03;16.60;;;;;;;;;;5096884;28;20452;-71
2021/07/02 03:49:15;;;;;;;26.60;17.40;;;;;;;;;;5097036;28;20955;-71
2021/07/02 03:51:44;;;;;;;26.07;17.20;;;;;;;;;;5096869;28;20474;-70
2021/07/02 03:54:12;;;;;;;23.47;17.43;;;;;;;;;;5097040;28;20448;-71
2021/07/02 03:57:11;;;;;;;35.23;18.87;;;;;;;;;;5097026;28;20455;-72
2021/07/02 03:59:30;;;;;;;26.93;17.40;;;;;;;;;;5096871;28;20444;-72
2021/07/02 04:01:58;;;;;;;27.70;18.07;;;;;;;;;;5097168;28;20504;-73
2021/07/02 04:04:26;;;;;;;25.27;18.97;;;;;;;;;;5096444;28;20860;-71
2021/07/02 04:06:53;;;;;;;27.90;17.50;;;;;;;;;;5096102;28;20513;-71
2021/07/02 04:09:21;;;;;;;25.80;17.60;;;;;;;;;;5095256;28;20919;-71
2021/07/02 04:11:51;;;;;;;24.27;17.00;;;;;;;;;;5095133;28;20512;-70
2021/07/02 04:14:18;;;;;;;24.40;18.40;;;;;;;;;;5096655;28;20519;-71
2021/07/02 04:16:46;;;;;;;26.60;18.13;;;;;;;;;;5096292;28;20721;-71
2021/07/02 04:19:14;;;;;;;24.07;17.47;;;;;;;;;;5095938;28;20504;-71
2021/07/02 04:21:42;;;;;;;24.27;17.17;;;;;;;;;;5096026;28;20451;-71
2021/07/02 04:24:10;;;;;;;25.60;18.10;;;;;;;;;;5096542;28;20455;-71
2021/07/02 04:26:39;;;;;;;25.67;19.33;;;;;;;;;;5096189;28;20459;-71
2021/07/02 04:29:08;;;;;;;23.57;16.53;;;;;;;;;;5095811;28;20548;-71
2021/07/02 04:31:42;;;;;;;25.70;18.23;;;;;;;;;;5096146;28;20455;-71
2021/07/02 04:34:10;;;;;;;21.53;15.60;;;;;;;;;;5095871;28;20443;-71
2021/07/02 04:36:41;;;;;;;22.27;17.30;;;;;;;;;;5095930;28;20518;-71
2021/07/02 04:39:08;;;;;;;19.70;15.10;;;;;;;;;;5095811;28;20855;-71
2021/07/02 04:41:38;;;;;;;21.90;16.53;;;;;;;;;;5095900;28;20536;-71
2021/07/02 04:44:09;;;;;;;22.27;16.10;;;;;;;;;;5095481;28;20451;-70
2021/07/02 04:46:37;;;;;;;26.33;17.20;;;;;;;;;;5096267;28;20739;-74
2021/07/02 04:49:07;;;;;;;19.20;14.80;;;;;;;;;;5095461;28;20812;-70
2021/07/02 04:51:35;;;;;;;18.90;14.50;;;;;;;;;;5095373;28;20462;-70
2021/07/02 04:54:03;;;;;;;22.73;16.03;;;;;;;;;;5095279;28;20512;-71
2021/07/02 04:56:31;;;;;;;20.90;15.43;;;;;;;;;;5094985;28;20467;-72
2021/07/02 04:59:00;;;;;;;19.60;14.57;;;;;;;;;;5095602;28;20452;-72
2021/07/02 05:01:30;;;;;;;21.40;15.30;;;;;;;;;;5095923;28;20451;-72
2021/07/02 05:03:57;;;;;;;21.50;16.90;;;;;;;;;;5095583;28;20458;-71
2021/07/02 05:06:25;;;;;;;20.13;15.53;;;;;;;;;;5095267;28;20451;-71
2021/07/02 05:08:54;;;;;;;19.70;14.40;;;;;;;;;;5094994;28;20789;-71
2021/07/02 05:11:21;;;;;;;17.97;13.90;;;;;;;;;;5094331;28;20487;-71
2021/07/02 05:13:49;;;;;;;18.20;14.23;;;;;;;;;;5095085;28;20448;-71
2021/07/02 05:16:17;;;;;;;26.43;15.57;;;;;;;;;;5094619;28;20525;-71
2021/07/02 05:18:47;;;;;;;22.30;14.67;;;;;;;;;;5094579;28;20944;-71
2021/07/02 05:21:14;;;;;;;17.50;14.10;;;;;;;;;;5094386;28;20451;-71
2021/07/02 05:23:43;;;;;;;22.03;15.13;;;;;;;;;;5094367;28;20452;-71
2021/07/02 05:26:12;;;;;;;21.23;13.30;;;;;;;;;;5093588;28;20463;-71
2021/07/02 05:28:40;;;;;;;20.70;14.27;;;;;;;;;;5094264;28;20447;-71
2021/07/02 05:31:08;;;;;;;21.10;15.50;;;;;;;;;;5094204;28;20491;-71
2021/07/02 05:33:36;;;;;;;22.10;14.10;;;;;;;;;;5094080;28;20452;-71
2021/07/02 05:36:06;;;;;;;19.80;14.30;;;;;;;;;;5096530;28;20450;-71
2021/07/02 05:38:33;;;;;;;17.20;14.23;;;;;;;;;;5096621;28;20439;-71
2021/07/02 05:41:01;;;;;;;18.90;14.63;;;;;;;;;;5096516;28;20459;-71
2021/07/02 05:43:29;;;;;;;21.13;14.83;;;;;;;;;;5096069;28;20458;-71
2021/07/02 05:45:57;;;;;;;23.20;14.60;;;;;;;;;;5095535;28;20470;-71
2021/07/02 05:48:25;;;;;;;19.30;15.27;;;;;;;;;;5096175;28;20544;-71
2021/07/02 05:50:55;;;;;;;18.60;14.77;;;;;;;;;;5094955;28;20505;-71
2021/07/02 05:53:25;;;;;;;27.77;16.00;;;;;;;;;;5094390;28;20443;-72
2021/07/02 05:55:52;;;;;;;22.87;14.47;;;;;;;;;;5094314;28;20700;-72
2021/07/02 05:58:23;;;;;;;19.70;14.00;;;;;;;;;;5096824;28;20444;-72
2021/07/02 06:00:51;;;;;;;17.40;15.10;;;;;;;;;;5095024;28;20468;-72
2021/07/02 06:03:19;;;;;;;18.37;13.60;;;;;;;;;;5097131;28;20517;-71
2021/07/02 06:05:47;;;;;;;18.67;13.13;;;;;;;;;;5096335;28;20456;-72
2021/07/02 06:08:15;;;;;;;22.70;14.67;;;;;;;;;;5096800;28;20479;-72
2021/07/02 06:10:44;;;;;;;20.37;15.20;;;;;;;;;;5096205;28;20549;-72
2021/07/02 06:13:14;;;;;;;19.27;13.00;;;;;;;;;;5095847;28;20452;-72
2021/07/02 06:15:42;;;;;;;20.40;14.33;;;;;;;;;;5095596;28;20455;-71
2021/07/02 06:18:10;;;;;;;20.30;13.83;;;;;;;;;;5095486;28;20432;-72
2021/07/02 06:20:39;;;;;;;20.40;14.17;;;;;;;;;;5095813;28;20485;-71
2021/07/02 06:23:07;;;;;;;23.33;12.60;;;;;;;;;;5095462;28;20816;-71
2021/07/02 06:25:38;;;;;;;23.20;14.40;;;;;;;;;;5096701;28;20897;-71
2021/07/02 06:28:19;;;;;;;18.00;13.43;;;;;;;;;;5096033;28;20512;-71
2021/07/02 06:30:54;;;;;;;18.40;12.47;;;;;;;;;;5093192;28;20596;-72
2021/07/02 06:33:26;;;;;;;21.77;13.83;;;;;;;;;;5086176;28;20480;-72
2021/07/02 06:35:56;;;;;;;18.60;13.87;;;;;;;;;;5078582;28;20479;-71
2021/07/02 06:38:29;;;;;;;18.30;14.60;;;;;;;;;;5093441;28;20448;-71
2021/07/02 06:40:57;;;;;;;22.60;12.43;;;;;;;;;;5096879;28;20528;-71
2021/07/02 06:43:26;;;;;;;20.43;14.63;;;;;;;;;;5078772;28;20749;-71
2021/07/02 06:45:55;;;;;;;20.17;13.50;;;;;;;;;;5094417;28;20452;-72
2021/07/02 06:48:27;;;;;;;22.27;15.03;;;;;;;;;;5082912;28;20517;-72
2021/07/02 06:50:59;;;;;;;15.70;13.00;;;;;;;;;;5085872;28;20951;-71
2021/07/02 06:53:31;;;;;;;20.40;16.50;;;;;;;;;;5088570;28;20543;-71
2021/07/02 06:56:04;;;;;;;18.47;12.53;;;;;;;;;;5069854;28;20448;-71
2021/07/02 06:58:38;;;;;;;18.37;12.53;;;;;;;;;;5078216;28;20848;-71
2021/07/02 07:01:06;;;;;;;18.40;14.17;;;;;;;;;;5090981;28;20612;-72
2021/07/02 07:03:34;;;;;;;19.60;13.57;;;;;;;;;;5096914;28;20753;-72
2021/07/02 07:06:51;;;;;;;17.90;12.57;;;;;;;;;;5097730;28;20451;-71
2021/07/02 07:09:23;;;;;;;18.47;12.67;;;;;;;;;;5013085;28;20455;-72
2021/07/02 07:11:55;;;;;;;17.07;13.03;;;;;;;;;;5089703;28;20484;-71
2021/07/02 07:14:25;;;;;;;22.73;14.03;;;;;;;;;;5096506;28;20842;-72
2021/07/02 07:17:02;;;;;;;15.23;12.27;;;;;;;;;;5094899;28;20447;-72
2021/07/02 07:19:40;;;;;;;19.03;13.20;;;;;;;;;;5094137;28;20467;-71
2021/07/02 07:22:10;;;;;;;17.83;13.37;;;;;;;;;;5095236;28;20516;-72
2021/07/02 07:24:40;;;;;;;24.67;16.87;;;;;;;;;;5094103;28;20834;-72
2021/07/02 07:27:08;;;;;;;17.93;12.50;;;;;;;;;;5089283;28;20548;-72
2021/07/02 07:29:43;;;;;;;17.97;12.60;;;;;;;;;;5094215;28;20459;-72
2021/07/02 07:32:12;;;;;;;16.03;12.70;;;;;;;;;;5093959;28;20471;-73
2021/07/02 07:34:48;;;;;;;17.60;11.43;;;;;;;;;;5090959;28;20509;-72
2021/07/02 07:37:22;;;;;;;20.90;13.43;;;;;;;;;;5094207;28;20455;-72
2021/07/02 07:39:53;;;;;;;17.70;11.30;;;;;;;;;;5094324;28;20467;-73
2021/07/02 07:42:21;;;;;;;19.23;13.60;;;;;;;;;;5089851;28;20461;-72
2021/07/02 07:44:50;;;;;;;17.53;12.47;;;;;;;;;;5087647;28;20667;-71
2021/07/02 07:47:18;;;;;;;17.83;12.60;;;;;;;;;;5089359;28;20447;-72
2021/07/02 07:49:46;;;;;;;24.70;15.47;;;;;;;;;;5094209;28;20460;-71
2021/07/02 07:52:18;;;;;;;17.90;12.20;;;;;;;;;;5085175;28;20476;-72
2021/07/02 07:54:46;;;;;;;16.87;12.43;;;;;;;;;;5092621;28;20558;-72
2021/07/02 07:57:27;;;;;;;14.50;11.63;;;;;;;;;;5093611;28;20460;-73
2021/07/02 07:59:56;;;;;;;20.07;14.10;;;;;;;;;;5093588;28;20528;-70
2021/07/02 08:02:27;;;;;;;16.30;12.40;;;;;;;;;;5094453;28;21363;-70
2021/07/02 08:04:55;;;;;;;15.80;11.90;;;;;;;;;;5092592;28;20515;-72
2021/07/02 08:07:51;;;;;;;24.33;17.50;;;;;;;;;;5093531;28;20883;-73
2021/07/02 08:10:49;;;;;;;19.77;12.90;;;;;;;;;;5095307;28;20492;-74
2021/07/02 08:13:20;;;;;;;18.67;13.20;;;;;;;;;;5093399;28;20562;-73
2021/07/02 08:15:56;;;;;;;15.63;11.23;;;;;;;;;;5087530;28;21049;-72
2021/07/02 08:18:32;;;;;;;16.30;11.80;;;;;;;;;;5087349;28;20450;-72
2021/07/02 08:21:09;;;;;;;13.93;11.20;;;;;;;;;;5096351;28;21155;-72
2021/07/02 08:23:37;;;;;;;16.67;11.80;;;;;;;;;;5092995;28;20463;-73
2021/07/02 08:26:06;;;;;;;19.27;13.63;;;;;;;;;;5092371;28;20495;-73
2021/07/02 08:31:35;;;;;;;21.03;12.00;;;;;;;;;;5087226;28;20545;-72
2021/07/02 08:34:12;;;;;;;16.47;11.63;;;;;;;;;;5092126;28;20786;-73
2021/07/02 08:36:55;;;;;;;16.40;11.67;;;;;;;;;;5089787;28;20455;-73
2021/07/02 08:39:29;;;;;;;17.93;12.57;;;;;;;;;;5086249;28;20495;-73
2021/07/02 08:42:13;;;;;;;14.67;11.03;;;;;;;;;;5087826;28;20457;-71
2021/07/02 08:44:48;;;;;;;15.10;11.30;;;;;;;;;;5091405;28;20521;-70
2021/07/02 08:47:37;;;;;;;18.23;11.00;;;;;;;;;;5092032;28;20463;-71
2021/07/02 08:50:11;;;;;;;16.83;10.70;;;;;;;;;;5093022;28;20472;-73
2021/07/02 08:52:54;;;;;;;14.33;9.40;;;;;;;;;;5090556;28;20459;-73
2021/07/02 08:55:25;;;;;;;13.27;9.37;;;;;;;;;;5092852;28;20472;-72
2021/07/02 08:58:17;;;;;;;14.77;10.87;;;;;;;;;;5091580;28;20475;-72
2021/07/02 09:00:56;;;;;;;14.70;11.77;;;;;;;;;;5092750;28;20459;-74
2021/07/02 09:03:36;;;;;;;13.10;9.20;;;;;;;;;;5091755;28;20463;-73
2021/07/02 09:06:20;;;;;;;15.07;9.27;;;;;;;;;;5084090;28;20905;-73
2021/07/02 09:09:14;;;;;;;14.90;9.20;;;;;;;;;;5098525;28;20435;-72
2021/07/02 09:11:46;;;;;;;14.80;9.77;;;;;;;;;;5109632;28;20475;-74
2021/07/02 09:14:28;;;;;;;18.37;11.93;;;;;;;;;;5091798;28;20466;-74
2021/07/02 09:17:09;;;;;;;16.20;10.43;;;;;;;;;;5096788;28;20517;-74
2021/07/02 09:19:49;;;;;;;14.80;11.70;;;;;;;;;;5094609;28;20455;-73
2021/07/02 09:22:21;;;;;;;14.63;9.73;;;;;;;;;;5093030;28;20463;-73
2021/07/02 09:24:59;;;;;;;15.20;11.43;;;;;;;;;;5095821;28;20886;-73
2021/07/02 09:27:31;;;;;;;19.20;10.77;;;;;;;;;;5094426;28;20462;-73
2021/07/02 09:30:03;;;;;;;10.60;8.77;;;;;;;;;;5098066;28;20505;-73
2021/07/02 09:32:33;;;;;;;12.00;9.23;;;;;;;;;;5096466;28;20479;-73
2021/07/02 09:35:06;;;;;;;12.30;9.20;;;;;;;;;;5096237;28;20444;-74
2021/07/02 09:37:37;;;;;;;15.57;10.70;;;;;;;;;;5089727;28;21044;-73
2021/07/02 09:40:16;;;;;;;13.90;9.33;;;;;;;;;;5090426;28;20448;-73
2021/07/02 09:42:45;;;;;;;9.43;5.67;;;;;;;;;;5080233;28;20497;-73
2021/07/02 09:45:21;;;;;;;10.30;6.70;;;;;;;;;;5092500;28;21137;-74
2021/07/02 09:47:50;;;;;;;9.83;7.73;;;;;;;;;;5096325;28;20883;-73
2021/07/02 09:53:35;;;;;;;8.87;7.97;;;;;;;;;;5089288;28;20448;-74
2021/07/02 09:56:09;;;;;;;9.57;7.33;;;;;;;;;;5092631;28;20561;-73
2021/07/02 09:58:44;;;;;;;9.27;6.93;;;;;;;;;;5088295;28;20452;-74
2021/07/02 10:01:36;;;;;;;12.77;8.63;;;;;;;;;;5085034;28;20474;-73
2021/07/02 10:04:09;;;;;;;10.03;7.07;;;;;;;;;;5093843;28;20443;-73
2021/07/02 10:06:54;;;;;;;13.43;6.93;;;;;;;;;;5096748;28;20487;-73
2021/07/02 10:09:32;;;;;;;7.97;6.90;;;;;;;;;;5095870;28;20450;-74
2021/07/02 10:14:53;;;;;;;8.03;6.17;;;;;;;;;;5092071;28;20594;-74
2021/07/02 10:17:21;;;;;;;13.27;6.87;;;;;;;;;;5095605;28;20448;-74
2021/07/02 10:19:53;;;;;;;11.70;6.80;;;;;;;;;;5094860;28;20739;-74
2021/07/02 10:22:52;;;;;;;13.70;7.27;;;;;;;;;;5096259;28;20769;-73
2021/07/02 10:25:25;;;;;;;9.80;7.13;;;;;;;;;;5088868;28;20483;-74
2021/07/02 10:27:54;;;;;;;9.47;7.20;;;;;;;;;;5095745;28;20456;-74
2021/07/02 10:30:34;;;;;;;7.20;6.00;;;;;;;;;;5089773;28;20448;-74
2021/07/02 10:33:07;;;;;;;9.40;7.13;;;;;;;;;;5104863;28;20465;-73
2021/07/02 10:35:43;;;;;;;10.20;6.40;;;;;;;;;;5065012;28;20453;-73
2021/07/02 10:38:23;;;;;;;7.17;6.27;;;;;;;;;;5094077;28;20483;-74
2021/07/02 10:40:56;;;;;;;9.57;6.40;;;;;;;;;;5088589;28;20982;-74
2021/07/02 10:43:26;;;;;;;10.27;6.13;;;;;;;;;;5088693;28;20455;-73
2021/07/02 10:46:13;;;;;;;8.80;5.23;;;;;;;;;;5090882;28;20467;-73
2021/07/02 10:49:01;;;;;;;8.87;5.80;;;;;;;;;;5096911;28;20536;-72
2021/07/02 10:52:05;;;;;;;7.97;5.37;;;;;;;;;;5093618;28;20794;-74
2021/07/02 10:54:37;;;;;;;5.60;4.70;;;;;;;;;;5079221;28;21184;-74
2021/07/02 10:57:19;;;;;;;7.53;5.60;;;;;;;;;;5094648;28;20463;-74
2021/07/02 11:00:01;;;;;;;7.30;5.93;;;;;;;;;;5090361;28;20448;-73
2021/07/02 11:02:29;;;;;;;8.70;5.43;;;;;;;;;;5083349;28;20952;-74
2021/07/02 11:05:03;;;;;;;6.57;4.87;;;;;;;;;;5095854;28;20474;-74
2021/07/02 11:07:42;;;;;;;6.20;5.00;;;;;;;;;;5094916;28;20458;-74
2021/07/02 11:10:17;;;;;;;6.43;4.97;;;;;;;;;;5092928;28;20462;-74
2021/07/02 11:13:18;;;;;;;;;;;;;;;;;;;;;
2021/07/02 11:16:02;;;;;;;10.03;7.17;;;;;;;;;;5077184;28;20439;-74
2021/07/02 11:18:42;;;;;;;7.10;6.10;;;;;;;;;;5083068;28;20482;-73
2021/07/02 11:21:17;;;;;;;8.33;6.93;;;;;;;;;;5093224;28;20655;-74
2021/07/02 11:23:51;;;;;;;5.40;4.07;;;;;;;;;;5089921;28;20503;-73
2021/07/02 11:26:49;;;;;;;7.83;5.40;;;;;;;;;;5093319;28;20439;-74
2021/07/02 11:29:21;;;;;;;9.17;5.63;;;;;;;;;;5036162;28;20922;-74
2021/07/02 11:31:51;;;;;;;7.10;5.90;;;;;;;;;;5092459;28;20491;-73
2021/07/02 11:34:32;;;;;;;6.70;4.93;;;;;;;;;;5094234;28;20922;-74
2021/07/02 11:37:12;;;;;;;7.07;5.97;;;;;;;;;;5093363;28;20427;-74
2021/07/02 11:39:43;;;;;;;7.03;5.33;;;;;;;;;;5093181;28;20451;-74
2021/07/02 11:42:12;;;;;;;6.07;5.47;;;;;;;;;;5093514;28;20447;-73
2021/07/02 11:44:40;;;;;;;8.33;6.03;;;;;;;;;;5093678;28;20455;-74
2021/07/02 11:47:09;;;;;;;9.40;5.60;;;;;;;;;;5090433;28;20530;-74
2021/07/02 11:49:52;;;;;;;10.60;6.73;;;;;;;;;;5092838;28;20458;-74
2021/07/02 11:52:23;;;;;;;9.83;5.23;;;;;;;;;;5090567;28;20492;-73
2021/07/02 11:54:52;;;;;;;6.30;5.03;;;;;;;;;;5093577;28;20819;-73
2021/07/02 11:57:21;;;;;;;8.53;6.20;;;;;;;;;;5093369;28;20533;-74
2021/07/02 11:59:58;;;;;;;8.37;6.27;;;;;;;;;;5093191;28;21102;-74
2021/07/02 12:02:27;;;;;;;8.20;6.67;;;;;;;;;;5092583;28;20447;-73
2021/07/02 12:05:07;;;;;;;10.93;7.80;;;;;;;;;;5092955;28;20456;-74
2021/07/02 12:07:36;;;;;;;10.00;7.23;;;;;;;;;;5093499;28;20543;-74
2021/07/02 12:10:34;;;;;;;7.43;6.67;;;;;;;;;;5096337;28;20960;-73
2021/07/02 12:13:10;;;;;;;9.50;6.60;;;;;;;;;;5092128;28;20471;-73
2021/07/02 12:15:42;;;;;;;6.40;5.23;;;;;;;;;;5095348;28;20459;-73
2021/07/02 12:18:12;;;;;;;8.97;5.40;;;;;;;;;;5084404;28;20568;-74
2021/07/02 12:20:40;;;;;;;9.53;7.60;;;;;;;;;;5090617;28;20592;-74
2021/07/02 12:23:11;;;;;;;10.10;6.27;;;;;;;;;;5094070;28;20933;-74
2021/07/02 12:29:08;;;;;;;10.33;7.53;;;;;;;;;;5150744;27;20644;-74
2021/07/02 12:31:41;;;;;;;8.00;7.13;;;;;;;;;;5153941;27;20468;-73
2021/07/02 12:34:11;;;;;;;10.23;7.30;;;;;;;;;;5131596;27;20753;-73
2021/07/02 12:36:53;;;;;;;8.37;5.93;;;;;;;;;;5127577;27;20454;-75
2021/07/02 12:39:26;;;;;;;8.10;6.50;;;;;;;;;;5130052;27;20470;-75
2021/07/02 12:41:57;;;;;;;8.13;5.97;;;;;;;;;;5131335;27;20920;-75
2021/07/02 12:44:32;;;;;;;7.07;5.37;;;;;;;;;;5131470;27;20490;-75
2021/07/02 12:47:06;;;;;;;6.87;5.80;;;;;;;;;;5130689;27;20594;-74
2021/07/02 12:49:36;;;;;;;9.30;6.17;;;;;;;;;;5132481;27;20454;-75
2021/07/02 12:54:52;;;;;;;7.80;5.87;;;;;;;;;;5131847;27;20734;-75
2021/07/02 12:57:28;;;;;;;8.87;6.70;;;;;;;;;;5132531;27;20453;-74
2021/07/02 13:00:08;;;;;;;7.67;6.10;;;;;;;;;;5132015;27;20802;-75
2021/07/02 13:02:37;;;;;;;6.60;4.90;;;;;;;;;;5123786;27;20451;-73
2021/07/02 13:05:08;;;;;;;11.27;7.20;;;;;;;;;;5113505;27;20528;-73
2021/07/02 13:07:48;;;;;;;11.13;6.27;;;;;;;;;;5110419;27;20589;-74
2021/07/02 13:10:30;;;;;;;7.30;4.63;;;;;;;;;;5111050;27;20447;-74
2021/07/02 13:13:24;;;;;;;6.13;4.97;;;;;;;;;;5110396;27;20688;-74
2021/07/02 13:16:11;;;;;;;7.90;5.63;;;;;;;;;;5051221;28;20470;-74
2021/07/02 13:19:04;;;;;;;9.13;4.80;;;;;;;;;;5110377;27;20455;-73
2021/07/02 13:21:54;;;;;;;5.90;5.03;;;;;;;;;;5110455;27;20509;-74
2021/07/02 13:24:28;;;;;;;7.17;5.27;;;;;;;;;;5112636;27;20856;-74
2021/07/02 13:27:28;;;;;;;;;;;;;;;;;;;;;
2021/07/02 13:30:02;;;;;;;5.37;4.20;;;;;;;;;;5123950;27;20458;-75
2021/07/02 13:32:30;;;;;;;7.27;5.27;;;;;;;;;;5127325;27;20465;-74
2021/07/02 13:35:03;;;;;;;5.90;4.43;;;;;;;;;;5128656;27;20461;-73
2021/07/02 13:37:42;;;;;;;10.77;5.33;;;;;;;;;;5129637;27;20462;-75
2021/07/02 13:40:34;;;;;;;6.03;5.10;;;;;;;;;;5116873;27;20473;-76
2021/07/02 13:46:11;;;;;;;7.40;4.87;;;;;;;;;;5112053;27;20455;-74
2021/07/02 13:48:41;;;;;;;7.87;5.40;;;;;;;;;;5116716;27;20551;-74
2021/07/02 13:51:08;;;;;;;9.40;5.07;;;;;;;;;;5117650;27;20913;-75
2021/07/02 13:53:35;;;;;;;8.87;5.50;;;;;;;;;;5114875;27;20573;-75
2021/07/02 13:56:14;;;;;;;7.83;5.10;;;;;;;;;;5115513;27;20780;-74
2021/07/02 13:58:49;;;;;;;8.73;6.97;;;;;;;;;;5117759;27;20445;-74
2021/07/02 14:01:17;;;;;;;6.07;4.30;;;;;;;;;;5115774;27;20549;-74
2021/07/02 14:03:58;;;;;;;8.97;4.37;;;;;;;;;;5116340;27;20513;-74
2021/07/02 14:06:48;;;;;;;6.63;5.30;;;;;;;;;;5113646;28;20470;-74
2021/07/02 14:12:21;;;;;;;6.20;5.17;;;;;;;;;;5095631;28;20459;-74
2021/07/02 14:14:49;;;;;;;7.73;5.10;;;;;;;;;;5116944;27;20457;-75
2021/07/02 14:17:57;;;;;;;5.40;4.87;;;;;;;;;;5115270;27;20451;-75
2021/07/02 14:20:54;;;;;;;6.57;5.77;;;;;;;;;;5117173;27;20447;-75
2021/07/02 14:23:26;;;;;;;7.60;5.60;;;;;;;;;;5111313;28;20446;-74
2021/07/02 14:26:00;;;;;;;7.33;5.50;;;;;;;;;;5115683;27;20467;-75
2021/07/02 14:28:34;;;;;;;7.40;5.73;;;;;;;;;;5116276;27;20530;-74
2021/07/02 14:33:54;;;;;;;8.93;5.30;;;;;;;;;;5102614;28;20455;-74
2021/07/02 14:36:24;;;;;;;6.90;5.27;;;;;;;;;;5114463;27;20447;-73
2021/07/02 14:38:55;;;;;;;6.60;4.03;;;;;;;;;;5097854;28;20521;-75
2021/07/02 14:41:29;;;;;;;6.47;4.43;;;;;;;;;;5096416;28;20463;-73
2021/07/02 14:43:59;;;;;;;7.00;4.43;;;;;;;;;;5115547;28;20454;-73
2021/07/02 14:46:27;;;;;;;6.90;4.97;;;;;;;;;;5115940;28;20450;-74
2021/07/02 14:48:54;;;;;;;6.73;4.60;;;;;;;;;;5122056;27;20454;-74
2021/07/02 14:51:29;;;;;;;5.33;4.40;;;;;;;;;;5113111;28;20572;-73
2021/07/02 14:53:59;;;;;;;6.07;4.40;;;;;;;;;;5115724;27;21094;-74
2021/07/02 14:56:26;;;;;;;6.83;4.10;;;;;;;;;;5117202;27;20473;-74
2021/07/02 14:58:53;;;;;;;8.33;6.40;;;;;;;;;;5118031;27;20489;-74
2021/07/02 15:01:23;;;;;;;5.77;4.67;;;;;;;;;;5115643;27;20735;-74
2021/07/02 15:04:00;;;;;;;7.03;4.70;;;;;;;;;;5097633;27;20449;-74
2021/07/02 15:06:37;;;;;;;5.37;4.07;;;;;;;;;;5115281;27;21041;-74
2021/07/02 15:09:08;;;;;;;8.77;4.97;;;;;;;;;;5113413;28;20840;-75
2021/07/02 15:11:39;;;;;;;6.73;5.27;;;;;;;;;;5107858;27;20461;-74
2021/07/02 15:14:09;;;;;;;10.73;5.40;;;;;;;;;;5116738;27;20537;-75
2021/07/02 15:16:36;;;;;;;7.03;4.43;;;;;;;;;;5118450;27;20465;-74
2021/07/02 15:19:32;;;;;;;5.40;4.30;;;;;;;;;;5114645;27;20443;-74
2021/07/02 15:22:04;;;;;;;7.30;4.57;;;;;;;;;;5116342;27;20516;-73
2021/07/02 15:24:34;;;;;;;6.87;5.23;;;;;;;;;;5115690;27;20578;-74